sensor_id;sensor_type;location;lat;lon;timestamp;P1;durP1;ratioP1;P2;durP2;ratioP2
14076;SDS011;7114;51.100;13.998;2023-05-06T00:00:12;12.18;;;5.47;;
14076;SDS011;7114;51.100;13.998;2023-05-06T00:02:38;11.50;;;5.33;;
14076;SDS011;7114;51.100;13.998;2023-05-06T00:05:05;10.90;;;5.18;;
14076;SDS011;7114;51.100;13.998;2023-05-06T00:07:31;10.65;;;5.30;;
14076;SDS011;7114;51.100;13.998;2023-05-06T00:09:57;12.30;;;5.38;;
14076;SDS011;7114;51.100;13.998;2023-05-06T00:12:23;10.25;;;5.18;;
14076;SDS011;7114;51.100;13.998;2023-05-06T00:14:51;12.20;;;5.57;;
14076;SDS011;7114;51.100;13.998;2023-05-06T00:17:17;11.15;;;5.20;;
14076;SDS011;7114;51.100;13.998;2023-05-06T00:19:43;10.68;;;5.47;;
14076;SDS011;7114;51.100;13.998;2023-05-06T00:22:09;11.57;;;6.00;;
14076;SDS011;7114;51.100;13.998;2023-05-06T00:24:35;12.02;;;6.10;;
14076;SDS011;7114;51.100;13.998;2023-05-06T00:27:01;11.97;;;5.87;;
14076;SDS011;7114;51.100;13.998;2023-05-06T00:29:28;13.82;;;6.32;;
14076;SDS011;7114;51.100;13.998;2023-05-06T00:31:55;11.20;;;5.80;;
14076;SDS011;7114;51.100;13.998;2023-05-06T00:34:21;10.35;;;5.72;;
14076;SDS011;7114;51.100;13.998;2023-05-06T00:36:47;12.70;;;6.10;;
14076;SDS011;7114;51.100;13.998;2023-05-06T00:39:13;12.37;;;6.37;;
14076;SDS011;7114;51.100;13.998;2023-05-06T00:41:40;13.05;;;6.70;;
14076;SDS011;7114;51.100;13.998;2023-05-06T00:44:06;13.07;;;6.50;;
14076;SDS011;7114;51.100;13.998;2023-05-06T00:46:32;12.55;;;6.70;;
14076;SDS011;7114;51.100;13.998;2023-05-06T00:49:00;11.60;;;6.53;;
14076;SDS011;7114;51.100;13.998;2023-05-06T00:51:26;11.07;;;6.13;;
14076;SDS011;7114;51.100;13.998;2023-05-06T00:53:52;11.02;;;6.40;;
14076;SDS011;7114;51.100;13.998;2023-05-06T00:56:19;12.95;;;7.25;;
14076;SDS011;7114;51.100;13.998;2023-05-06T00:58:45;14.70;;;6.45;;
14076;SDS011;7114;51.100;13.998;2023-05-06T01:01:11;14.10;;;7.50;;
14076;SDS011;7114;51.100;13.998;2023-05-06T01:03:37;12.57;;;6.63;;
14076;SDS011;7114;51.100;13.998;2023-05-06T01:06:09;12.55;;;6.70;;
14076;SDS011;7114;51.100;13.998;2023-05-06T01:08:40;15.52;;;6.90;;
14076;SDS011;7114;51.100;13.998;2023-05-06T01:11:08;12.43;;;7.20;;
14076;SDS011;7114;51.100;13.998;2023-05-06T01:13:37;12.82;;;7.40;;
14076;SDS011;7114;51.100;13.998;2023-05-06T01:16:07;13.30;;;7.00;;
14076;SDS011;7114;51.100;13.998;2023-05-06T01:18:35;12.90;;;6.88;;
14076;SDS011;7114;51.100;13.998;2023-05-06T01:21:03;15.05;;;7.35;;
14076;SDS011;7114;51.100;13.998;2023-05-06T01:23:37;11.50;;;6.65;;
14076;SDS011;7114;51.100;13.998;2023-05-06T01:26:14;12.70;;;7.03;;
14076;SDS011;7114;51.100;13.998;2023-05-06T01:28:40;14.30;;;7.07;;
14076;SDS011;7114;51.100;13.998;2023-05-06T01:31:07;13.32;;;6.78;;
14076;SDS011;7114;51.100;13.998;2023-05-06T01:33:35;14.95;;;7.18;;
14076;SDS011;7114;51.100;13.998;2023-05-06T01:36:06;13.93;;;7.35;;
14076;SDS011;7114;51.100;13.998;2023-05-06T01:38:34;11.82;;;6.80;;
14076;SDS011;7114;51.100;13.998;2023-05-06T01:41:04;14.10;;;7.07;;
14076;SDS011;7114;51.100;13.998;2023-05-06T01:43:32;13.73;;;7.18;;
14076;SDS011;7114;51.100;13.998;2023-05-06T01:46:00;15.27;;;7.28;;
14076;SDS011;7114;51.100;13.998;2023-05-06T01:48:28;15.25;;;7.35;;
14076;SDS011;7114;51.100;13.998;2023-05-06T01:50:55;14.73;;;7.20;;
14076;SDS011;7114;51.100;13.998;2023-05-06T01:53:21;13.73;;;8.00;;
14076;SDS011;7114;51.100;13.998;2023-05-06T01:55:47;13.38;;;7.28;;
14076;SDS011;7114;51.100;13.998;2023-05-06T01:58:15;11.38;;;7.07;;
14076;SDS011;7114;51.100;13.998;2023-05-06T02:00:41;13.05;;;7.22;;
14076;SDS011;7114;51.100;13.998;2023-05-06T02:03:07;12.05;;;7.55;;
14076;SDS011;7114;51.100;13.998;2023-05-06T02:05:33;14.57;;;7.87;;
14076;SDS011;7114;51.100;13.998;2023-05-06T02:07:59;13.68;;;7.50;;
14076;SDS011;7114;51.100;13.998;2023-05-06T02:10:26;13.05;;;7.07;;
14076;SDS011;7114;51.100;13.998;2023-05-06T02:12:52;17.25;;;7.43;;
14076;SDS011;7114;51.100;13.998;2023-05-06T02:15:19;11.93;;;7.22;;
14076;SDS011;7114;51.100;13.998;2023-05-06T02:17:45;13.93;;;7.83;;
14076;SDS011;7114;51.100;13.998;2023-05-06T02:20:12;12.25;;;7.03;;
14076;SDS011;7114;51.100;13.998;2023-05-06T02:22:38;12.90;;;7.28;;
14076;SDS011;7114;51.100;13.998;2023-05-06T02:25:04;13.88;;;6.90;;
14076;SDS011;7114;51.100;13.998;2023-05-06T02:27:31;14.18;;;7.20;;
14076;SDS011;7114;51.100;13.998;2023-05-06T02:29:57;12.70;;;6.90;;
14076;SDS011;7114;51.100;13.998;2023-05-06T02:32:24;12.20;;;7.43;;
14076;SDS011;7114;51.100;13.998;2023-05-06T02:34:50;13.18;;;6.78;;
14076;SDS011;7114;51.100;13.998;2023-05-06T02:37:17;12.82;;;6.20;;
14076;SDS011;7114;51.100;13.998;2023-05-06T02:39:43;11.77;;;6.70;;
14076;SDS011;7114;51.100;13.998;2023-05-06T02:42:10;12.20;;;6.43;;
14076;SDS011;7114;51.100;13.998;2023-05-06T02:44:37;13.30;;;6.85;;
14076;SDS011;7114;51.100;13.998;2023-05-06T02:47:03;11.50;;;6.03;;
14076;SDS011;7114;51.100;13.998;2023-05-06T02:49:31;11.90;;;6.00;;
14076;SDS011;7114;51.100;13.998;2023-05-06T02:51:57;10.80;;;6.05;;
14076;SDS011;7114;51.100;13.998;2023-05-06T02:54:23;12.20;;;5.53;;
14076;SDS011;7114;51.100;13.998;2023-05-06T02:56:51;11.52;;;5.32;;
14076;SDS011;7114;51.100;13.998;2023-05-06T02:59:17;11.27;;;5.70;;
14076;SDS011;7114;51.100;13.998;2023-05-06T03:01:43;11.85;;;6.15;;
14076;SDS011;7114;51.100;13.998;2023-05-06T03:04:10;13.85;;;5.70;;
14076;SDS011;7114;51.100;13.998;2023-05-06T03:06:37;10.77;;;5.50;;
14076;SDS011;7114;51.100;13.998;2023-05-06T03:09:03;11.05;;;5.43;;
14076;SDS011;7114;51.100;13.998;2023-05-06T03:11:29;11.05;;;5.63;;
14076;SDS011;7114;51.100;13.998;2023-05-06T03:13:56;12.48;;;5.90;;
14076;SDS011;7114;51.100;13.998;2023-05-06T03:16:22;10.35;;;5.43;;
14076;SDS011;7114;51.100;13.998;2023-05-06T03:18:49;10.03;;;5.43;;
14076;SDS011;7114;51.100;13.998;2023-05-06T03:21:15;10.57;;;5.53;;
14076;SDS011;7114;51.100;13.998;2023-05-06T03:23:43;10.13;;;5.45;;
14076;SDS011;7114;51.100;13.998;2023-05-06T03:26:09;11.35;;;5.65;;
14076;SDS011;7114;51.100;13.998;2023-05-06T03:28:35;11.52;;;5.50;;
14076;SDS011;7114;51.100;13.998;2023-05-06T03:31:01;11.27;;;5.50;;
14076;SDS011;7114;51.100;13.998;2023-05-06T03:33:27;10.95;;;5.55;;
14076;SDS011;7114;51.100;13.998;2023-05-06T03:35:53;11.20;;;5.78;;
14076;SDS011;7114;51.100;13.998;2023-05-06T03:38:19;11.38;;;5.38;;
14076;SDS011;7114;51.100;13.998;2023-05-06T03:40:47;12.20;;;5.65;;
14076;SDS011;7114;51.100;13.998;2023-05-06T03:43:13;12.40;;;5.70;;
14076;SDS011;7114;51.100;13.998;2023-05-06T03:45:39;11.40;;;5.60;;
14076;SDS011;7114;51.100;13.998;2023-05-06T03:48:05;11.27;;;5.93;;
14076;SDS011;7114;51.100;13.998;2023-05-06T03:50:31;13.23;;;6.03;;
14076;SDS011;7114;51.100;13.998;2023-05-06T03:52:57;12.52;;;6.20;;
14076;SDS011;7114;51.100;13.998;2023-05-06T03:55:24;10.40;;;6.00;;
14076;SDS011;7114;51.100;13.998;2023-05-06T03:57:51;12.02;;;5.93;;
14076;SDS011;7114;51.100;13.998;2023-05-06T04:00:17;10.45;;;5.90;;
14076;SDS011;7114;51.100;13.998;2023-05-06T04:02:44;11.10;;;5.85;;
14076;SDS011;7114;51.100;13.998;2023-05-06T04:05:10;11.35;;;6.10;;
14076;SDS011;7114;51.100;13.998;2023-05-06T04:07:36;10.50;;;6.00;;
14076;SDS011;7114;51.100;13.998;2023-05-06T04:10:02;10.93;;;5.53;;
14076;SDS011;7114;51.100;13.998;2023-05-06T04:12:28;11.25;;;5.50;;
14076;SDS011;7114;51.100;13.998;2023-05-06T04:14:56;12.00;;;5.88;;
14076;SDS011;7114;51.100;13.998;2023-05-06T04:17:22;11.10;;;5.18;;
14076;SDS011;7114;51.100;13.998;2023-05-06T04:19:48;11.57;;;5.70;;
14076;SDS011;7114;51.100;13.998;2023-05-06T04:22:16;13.32;;;5.40;;
14076;SDS011;7114;51.100;13.998;2023-05-06T04:24:42;10.90;;;6.18;;
14076;SDS011;7114;51.100;13.998;2023-05-06T04:27:09;10.65;;;5.80;;
14076;SDS011;7114;51.100;13.998;2023-05-06T04:29:35;11.35;;;6.07;;
14076;SDS011;7114;51.100;13.998;2023-05-06T04:32:03;11.20;;;5.93;;
14076;SDS011;7114;51.100;13.998;2023-05-06T04:34:29;12.15;;;6.22;;
14076;SDS011;7114;51.100;13.998;2023-05-06T04:36:56;12.85;;;6.15;;
14076;SDS011;7114;51.100;13.998;2023-05-06T04:39:23;11.35;;;6.00;;
14076;SDS011;7114;51.100;13.998;2023-05-06T04:41:49;15.57;;;8.00;;
14076;SDS011;7114;51.100;13.998;2023-05-06T04:44:15;26.37;;;11.47;;
14076;SDS011;7114;51.100;13.998;2023-05-06T04:46:43;31.35;;;14.30;;
14076;SDS011;7114;51.100;13.998;2023-05-06T04:49:10;40.63;;;17.52;;
14076;SDS011;7114;51.100;13.998;2023-05-06T04:51:37;43.30;;;17.25;;
14076;SDS011;7114;51.100;13.998;2023-05-06T04:54:03;32.35;;;14.32;;
14076;SDS011;7114;51.100;13.998;2023-05-06T04:56:29;23.67;;;10.93;;
14076;SDS011;7114;51.100;13.998;2023-05-06T04:58:55;17.90;;;8.25;;
14076;SDS011;7114;51.100;13.998;2023-05-06T05:01:21;13.77;;;7.10;;
14076;SDS011;7114;51.100;13.998;2023-05-06T05:03:48;13.88;;;6.65;;
14076;SDS011;7114;51.100;13.998;2023-05-06T05:06:15;11.18;;;6.45;;
14076;SDS011;7114;51.100;13.998;2023-05-06T05:08:41;11.70;;;5.70;;
14076;SDS011;7114;51.100;13.998;2023-05-06T05:11:07;11.50;;;5.88;;
14076;SDS011;7114;51.100;13.998;2023-05-06T05:13:34;10.52;;;5.82;;
14076;SDS011;7114;51.100;13.998;2023-05-06T05:16:00;10.13;;;5.60;;
14076;SDS011;7114;51.100;13.998;2023-05-06T05:18:26;9.98;;;5.68;;
14076;SDS011;7114;51.100;13.998;2023-05-06T05:20:53;10.77;;;5.13;;
14076;SDS011;7114;51.100;13.998;2023-05-06T05:23:21;10.52;;;5.70;;
14076;SDS011;7114;51.100;13.998;2023-05-06T05:25:47;9.93;;;5.70;;
14076;SDS011;7114;51.100;13.998;2023-05-06T05:28:13;10.52;;;5.38;;
14076;SDS011;7114;51.100;13.998;2023-05-06T05:30:39;11.13;;;5.72;;
14076;SDS011;7114;51.100;13.998;2023-05-06T05:33:05;10.27;;;5.27;;
14076;SDS011;7114;51.100;13.998;2023-05-06T05:35:31;9.95;;;5.28;;
14076;SDS011;7114;51.100;13.998;2023-05-06T05:37:58;9.43;;;5.20;;
14076;SDS011;7114;51.100;13.998;2023-05-06T05:40:25;9.13;;;5.13;;
14076;SDS011;7114;51.100;13.998;2023-05-06T05:42:52;10.65;;;5.28;;
14076;SDS011;7114;51.100;13.998;2023-05-06T05:45:18;11.53;;;5.70;;
14076;SDS011;7114;51.100;13.998;2023-05-06T05:47:45;11.27;;;5.88;;
14076;SDS011;7114;51.100;13.998;2023-05-06T05:50:11;10.45;;;5.93;;
14076;SDS011;7114;51.100;13.998;2023-05-06T05:52:37;11.70;;;5.90;;
14076;SDS011;7114;51.100;13.998;2023-05-06T05:55:03;11.13;;;6.50;;
14076;SDS011;7114;51.100;13.998;2023-05-06T05:57:31;12.27;;;6.17;;
14076;SDS011;7114;51.100;13.998;2023-05-06T05:59:57;11.77;;;6.35;;
14076;SDS011;7114;51.100;13.998;2023-05-06T06:02:24;13.35;;;6.43;;
14076;SDS011;7114;51.100;13.998;2023-05-06T06:04:50;12.30;;;6.53;;
14076;SDS011;7114;51.100;13.998;2023-05-06T06:07:16;13.50;;;6.95;;
14076;SDS011;7114;51.100;13.998;2023-05-06T06:09:42;12.83;;;6.97;;
14076;SDS011;7114;51.100;13.998;2023-05-06T06:12:10;13.60;;;7.32;;
14076;SDS011;7114;51.100;13.998;2023-05-06T06:14:38;12.50;;;7.03;;
14076;SDS011;7114;51.100;13.998;2023-05-06T06:17:04;12.70;;;7.63;;
14076;SDS011;7114;51.100;13.998;2023-05-06T06:19:30;11.52;;;6.70;;
14076;SDS011;7114;51.100;13.998;2023-05-06T06:21:56;12.53;;;7.13;;
14076;SDS011;7114;51.100;13.998;2023-05-06T06:24:23;13.93;;;7.68;;
14076;SDS011;7114;51.100;13.998;2023-05-06T06:26:49;14.25;;;8.20;;
14076;SDS011;7114;51.100;13.998;2023-05-06T06:29:15;13.18;;;7.95;;
14076;SDS011;7114;51.100;13.998;2023-05-06T06:31:43;14.23;;;8.18;;
14076;SDS011;7114;51.100;13.998;2023-05-06T06:34:09;13.80;;;7.70;;
14076;SDS011;7114;51.100;13.998;2023-05-06T06:36:36;13.48;;;7.93;;
14076;SDS011;7114;51.100;13.998;2023-05-06T06:39:04;15.25;;;8.32;;
14076;SDS011;7114;51.100;13.998;2023-05-06T06:41:30;14.68;;;8.57;;
14076;SDS011;7114;51.100;13.998;2023-05-06T06:43:56;13.90;;;8.57;;
14076;SDS011;7114;51.100;13.998;2023-05-06T06:46:23;13.63;;;8.47;;
14076;SDS011;7114;51.100;13.998;2023-05-06T06:48:51;14.63;;;8.50;;
14076;SDS011;7114;51.100;13.998;2023-05-06T06:51:17;14.65;;;9.05;;
14076;SDS011;7114;51.100;13.998;2023-05-06T06:53:43;15.68;;;8.68;;
14076;SDS011;7114;51.100;13.998;2023-05-06T06:56:12;17.58;;;9.75;;
14076;SDS011;7114;51.100;13.998;2023-05-06T06:58:38;16.37;;;8.77;;
14076;SDS011;7114;51.100;13.998;2023-05-06T07:01:04;15.02;;;8.15;;
14076;SDS011;7114;51.100;13.998;2023-05-06T07:03:30;14.95;;;8.65;;
14076;SDS011;7114;51.100;13.998;2023-05-06T07:05:58;15.82;;;8.60;;
14076;SDS011;7114;51.100;13.998;2023-05-06T07:08:24;17.30;;;8.63;;
14076;SDS011;7114;51.100;13.998;2023-05-06T07:10:50;14.73;;;7.77;;
14076;SDS011;7114;51.100;13.998;2023-05-06T07:13:16;14.52;;;8.48;;
14076;SDS011;7114;51.100;13.998;2023-05-06T07:15:44;16.83;;;9.98;;
14076;SDS011;7114;51.100;13.998;2023-05-06T07:18:10;14.73;;;8.57;;
14076;SDS011;7114;51.100;13.998;2023-05-06T07:20:36;16.73;;;8.93;;
14076;SDS011;7114;51.100;13.998;2023-05-06T07:23:04;16.03;;;9.27;;
14076;SDS011;7114;51.100;13.998;2023-05-06T07:25:30;15.90;;;9.52;;
14076;SDS011;7114;51.100;13.998;2023-05-06T07:27:56;16.50;;;9.43;;
14076;SDS011;7114;51.100;13.998;2023-05-06T07:30:22;16.02;;;10.38;;
14076;SDS011;7114;51.100;13.998;2023-05-06T07:32:48;18.60;;;10.60;;
14076;SDS011;7114;51.100;13.998;2023-05-06T07:35:15;19.37;;;12.33;;
14076;SDS011;7114;51.100;13.998;2023-05-06T07:37:41;18.08;;;10.68;;
14076;SDS011;7114;51.100;13.998;2023-05-06T07:40:09;20.38;;;13.05;;
14076;SDS011;7114;51.100;13.998;2023-05-06T07:42:35;20.52;;;13.23;;
14076;SDS011;7114;51.100;13.998;2023-05-06T07:45:01;19.75;;;13.13;;
14076;SDS011;7114;51.100;13.998;2023-05-06T07:47:28;19.87;;;12.13;;
14076;SDS011;7114;51.100;13.998;2023-05-06T07:49:55;24.10;;;13.50;;
14076;SDS011;7114;51.100;13.998;2023-05-06T07:52:21;20.98;;;13.93;;
14076;SDS011;7114;51.100;13.998;2023-05-06T07:54:47;19.00;;;11.93;;
14076;SDS011;7114;51.100;13.998;2023-05-06T07:57:15;19.67;;;13.23;;
14076;SDS011;7114;51.100;13.998;2023-05-06T07:59:41;20.23;;;12.33;;
14076;SDS011;7114;51.100;13.998;2023-05-06T08:02:08;19.45;;;12.95;;
14076;SDS011;7114;51.100;13.998;2023-05-06T08:04:34;20.05;;;12.07;;
14076;SDS011;7114;51.100;13.998;2023-05-06T08:07:00;19.60;;;12.32;;
14076;SDS011;7114;51.100;13.998;2023-05-06T08:09:26;19.10;;;11.45;;
14076;SDS011;7114;51.100;13.998;2023-05-06T08:11:53;21.23;;;11.17;;
14076;SDS011;7114;51.100;13.998;2023-05-06T08:14:20;20.55;;;12.38;;
14076;SDS011;7114;51.100;13.998;2023-05-06T08:16:46;19.83;;;12.30;;
14076;SDS011;7114;51.100;13.998;2023-05-06T08:19:12;20.15;;;11.65;;
14076;SDS011;7114;51.100;13.998;2023-05-06T08:21:38;19.90;;;12.77;;
14076;SDS011;7114;51.100;13.998;2023-05-06T08:24:05;20.30;;;11.90;;
14076;SDS011;7114;51.100;13.998;2023-05-06T08:26:31;18.25;;;11.18;;
14076;SDS011;7114;51.100;13.998;2023-05-06T08:28:57;16.65;;;10.40;;
14076;SDS011;7114;51.100;13.998;2023-05-06T08:31:25;17.38;;;10.13;;
14076;SDS011;7114;51.100;13.998;2023-05-06T08:33:51;19.13;;;12.95;;
14076;SDS011;7114;51.100;13.998;2023-05-06T08:36:17;19.17;;;11.53;;
14076;SDS011;7114;51.100;13.998;2023-05-06T08:38:43;20.63;;;12.23;;
14076;SDS011;7114;51.100;13.998;2023-05-06T08:41:15;20.23;;;11.75;;
14076;SDS011;7114;51.100;13.998;2023-05-06T08:43:42;18.67;;;11.73;;
14076;SDS011;7114;51.100;13.998;2023-05-06T08:46:08;20.95;;;11.13;;
14076;SDS011;7114;51.100;13.998;2023-05-06T08:48:36;17.37;;;11.10;;
14076;SDS011;7114;51.100;13.998;2023-05-06T08:51:02;18.00;;;11.55;;
14076;SDS011;7114;51.100;13.998;2023-05-06T08:53:28;19.20;;;11.52;;
14076;SDS011;7114;51.100;13.998;2023-05-06T08:55:55;20.30;;;12.27;;
14076;SDS011;7114;51.100;13.998;2023-05-06T08:58:22;18.98;;;11.32;;
14076;SDS011;7114;51.100;13.998;2023-05-06T09:00:50;17.60;;;10.80;;
14076;SDS011;7114;51.100;13.998;2023-05-06T09:03:16;20.20;;;11.13;;
14076;SDS011;7114;51.100;13.998;2023-05-06T09:05:43;19.58;;;11.48;;
14076;SDS011;7114;51.100;13.998;2023-05-06T09:08:09;17.23;;;11.32;;
14076;SDS011;7114;51.100;13.998;2023-05-06T09:10:36;21.48;;;12.43;;
14076;SDS011;7114;51.100;13.998;2023-05-06T09:13:02;20.80;;;12.03;;
14076;SDS011;7114;51.100;13.998;2023-05-06T09:15:37;20.30;;;12.25;;
14076;SDS011;7114;51.100;13.998;2023-05-06T09:18:04;19.77;;;11.23;;
14076;SDS011;7114;51.100;13.998;2023-05-06T09:20:31;28.80;;;15.18;;
14076;SDS011;7114;51.100;13.998;2023-05-06T09:22:59;20.40;;;12.27;;
14076;SDS011;7114;51.100;13.998;2023-05-06T09:25:25;21.47;;;12.60;;
14076;SDS011;7114;51.100;13.998;2023-05-06T09:27:54;20.42;;;12.25;;
14076;SDS011;7114;51.100;13.998;2023-05-06T09:30:27;20.70;;;12.00;;
14076;SDS011;7114;51.100;13.998;2023-05-06T09:32:54;18.38;;;10.95;;
14076;SDS011;7114;51.100;13.998;2023-05-06T09:35:20;22.35;;;11.82;;
14076;SDS011;7114;51.100;13.998;2023-05-06T09:37:46;21.80;;;12.23;;
14076;SDS011;7114;51.100;13.998;2023-05-06T09:40:14;25.07;;;14.77;;
14076;SDS011;7114;51.100;13.998;2023-05-06T09:42:40;21.13;;;11.93;;
14076;SDS011;7114;51.100;13.998;2023-05-06T09:45:08;21.40;;;12.82;;
14076;SDS011;7114;51.100;13.998;2023-05-06T09:47:34;21.08;;;12.35;;
14076;SDS011;7114;51.100;13.998;2023-05-06T09:50:02;23.10;;;13.48;;
14076;SDS011;7114;51.100;13.998;2023-05-06T09:52:28;26.23;;;15.27;;
14076;SDS011;7114;51.100;13.998;2023-05-06T09:54:56;24.63;;;14.55;;
14076;SDS011;7114;51.100;13.998;2023-05-06T09:57:23;25.63;;;15.25;;
14076;SDS011;7114;51.100;13.998;2023-05-06T09:59:50;21.70;;;13.18;;
14076;SDS011;7114;51.100;13.998;2023-05-06T10:02:17;22.33;;;13.80;;
14076;SDS011;7114;51.100;13.998;2023-05-06T10:04:43;20.63;;;12.57;;
14076;SDS011;7114;51.100;13.998;2023-05-06T10:07:10;20.52;;;13.20;;
14076;SDS011;7114;51.100;13.998;2023-05-06T10:09:38;21.88;;;13.27;;
14076;SDS011;7114;51.100;13.998;2023-05-06T10:12:05;21.50;;;12.95;;
14076;SDS011;7114;51.100;13.998;2023-05-06T10:14:33;22.98;;;13.55;;
14076;SDS011;7114;51.100;13.998;2023-05-06T10:16:59;21.37;;;11.77;;
14076;SDS011;7114;51.100;13.998;2023-05-06T10:19:25;20.52;;;12.93;;
14076;SDS011;7114;51.100;13.998;2023-05-06T10:21:53;25.60;;;14.73;;
14076;SDS011;7114;51.100;13.998;2023-05-06T10:24:21;25.27;;;15.57;;
14076;SDS011;7114;51.100;13.998;2023-05-06T10:26:48;22.00;;;13.88;;
14076;SDS011;7114;51.100;13.998;2023-05-06T10:29:16;22.77;;;13.43;;
14076;SDS011;7114;51.100;13.998;2023-05-06T10:31:45;21.88;;;13.40;;
14076;SDS011;7114;51.100;13.998;2023-05-06T10:34:13;24.15;;;13.60;;
14076;SDS011;7114;51.100;13.998;2023-05-06T10:36:40;21.23;;;13.30;;
14076;SDS011;7114;51.100;13.998;2023-05-06T10:39:08;22.55;;;12.52;;
14076;SDS011;7114;51.100;13.998;2023-05-06T10:41:36;23.97;;;13.40;;
14076;SDS011;7114;51.100;13.998;2023-05-06T10:44:03;25.15;;;12.98;;
14076;SDS011;7114;51.100;13.998;2023-05-06T10:46:30;38.00;;;15.35;;
14076;SDS011;7114;51.100;13.998;2023-05-06T10:49:16;31.55;;;15.18;;
14076;SDS011;7114;51.100;13.998;2023-05-06T10:51:44;28.88;;;13.00;;
14076;SDS011;7114;51.100;13.998;2023-05-06T10:54:11;22.60;;;12.77;;
14076;SDS011;7114;51.100;13.998;2023-05-06T10:59:27;21.63;;;12.75;;
14076;SDS011;7114;51.100;13.998;2023-05-06T11:01:54;24.25;;;12.23;;
14076;SDS011;7114;51.100;13.998;2023-05-06T11:04:21;155.18;;;44.22;;
14076;SDS011;7114;51.100;13.998;2023-05-06T11:06:48;505.03;;;139.83;;
14076;SDS011;7114;51.100;13.998;2023-05-06T11:09:15;224.50;;;56.30;;
14076;SDS011;7114;51.100;13.998;2023-05-06T11:11:46;293.38;;;63.33;;
14076;SDS011;7114;51.100;13.998;2023-05-06T11:14:12;231.30;;;56.05;;
14076;SDS011;7114;51.100;13.998;2023-05-06T11:16:48;107.55;;;32.25;;
14076;SDS011;7114;51.100;13.998;2023-05-06T11:19:19;54.50;;;19.07;;
14076;SDS011;7114;51.100;13.998;2023-05-06T11:21:48;31.00;;;15.02;;
14076;SDS011;7114;51.100;13.998;2023-05-06T11:24:17;22.60;;;13.30;;
14076;SDS011;7114;51.100;13.998;2023-05-06T11:26:46;19.15;;;12.68;;
14076;SDS011;7114;51.100;13.998;2023-05-06T11:29:14;20.77;;;13.20;;
14076;SDS011;7114;51.100;13.998;2023-05-06T11:31:41;21.27;;;12.77;;
14076;SDS011;7114;51.100;13.998;2023-05-06T11:34:08;18.13;;;12.00;;
14076;SDS011;7114;51.100;13.998;2023-05-06T11:36:35;21.58;;;12.38;;
14076;SDS011;7114;51.100;13.998;2023-05-06T11:39:05;22.10;;;13.52;;
14076;SDS011;7114;51.100;13.998;2023-05-06T11:41:32;23.20;;;14.75;;
14076;SDS011;7114;51.100;13.998;2023-05-06T11:43:58;22.27;;;14.23;;
14076;SDS011;7114;51.100;13.998;2023-05-06T11:46:24;23.10;;;13.75;;
14076;SDS011;7114;51.100;13.998;2023-05-06T11:48:54;26.15;;;15.43;;
14076;SDS011;7114;51.100;13.998;2023-05-06T11:51:20;28.35;;;17.52;;
14076;SDS011;7114;51.100;13.998;2023-05-06T11:53:46;23.65;;;14.43;;
14076;SDS011;7114;51.100;13.998;2023-05-06T11:56:14;22.57;;;12.37;;
14076;SDS011;7114;51.100;13.998;2023-05-06T11:58:40;21.55;;;13.10;;
14076;SDS011;7114;51.100;13.998;2023-05-06T12:01:06;19.35;;;12.85;;
14076;SDS011;7114;51.100;13.998;2023-05-06T12:03:33;23.13;;;12.98;;
14076;SDS011;7114;51.100;13.998;2023-05-06T12:05:59;19.73;;;12.10;;
14076;SDS011;7114;51.100;13.998;2023-05-06T12:08:26;20.53;;;13.13;;
14076;SDS011;7114;51.100;13.998;2023-05-06T12:10:55;20.75;;;13.25;;
14076;SDS011;7114;51.100;13.998;2023-05-06T12:13:24;22.33;;;11.38;;
14076;SDS011;7114;51.100;13.998;2023-05-06T12:15:50;21.25;;;12.60;;
14076;SDS011;7114;51.100;13.998;2023-05-06T12:18:18;23.20;;;12.80;;
14076;SDS011;7114;51.100;13.998;2023-05-06T12:20:45;20.63;;;12.83;;
14076;SDS011;7114;51.100;13.998;2023-05-06T12:23:12;20.90;;;12.60;;
14076;SDS011;7114;51.100;13.998;2023-05-06T12:25:39;20.25;;;12.82;;
14076;SDS011;7114;51.100;13.998;2023-05-06T12:28:14;20.10;;;12.18;;
14076;SDS011;7114;51.100;13.998;2023-05-06T12:30:42;19.02;;;11.00;;
14076;SDS011;7114;51.100;13.998;2023-05-06T12:33:08;16.67;;;10.03;;
14076;SDS011;7114;51.100;13.998;2023-05-06T12:35:35;18.00;;;11.70;;
14076;SDS011;7114;51.100;13.998;2023-05-06T12:38:08;18.95;;;11.15;;
14076;SDS011;7114;51.100;13.998;2023-05-06T12:40:34;17.23;;;10.90;;
14076;SDS011;7114;51.100;13.998;2023-05-06T12:43:01;15.57;;;9.73;;
14076;SDS011;7114;51.100;13.998;2023-05-06T12:45:27;18.77;;;9.87;;
14076;SDS011;7114;51.100;13.998;2023-05-06T12:47:56;15.50;;;8.55;;
14076;SDS011;7114;51.100;13.998;2023-05-06T12:50:32;15.10;;;9.90;;
14076;SDS011;7114;51.100;13.998;2023-05-06T12:52:59;14.60;;;9.00;;
14076;SDS011;7114;51.100;13.998;2023-05-06T12:55:25;15.73;;;9.93;;
14076;SDS011;7114;51.100;13.998;2023-05-06T12:57:51;15.67;;;9.40;;
14076;SDS011;7114;51.100;13.998;2023-05-06T13:00:18;17.48;;;9.90;;
14076;SDS011;7114;51.100;13.998;2023-05-06T13:02:44;14.73;;;9.02;;
14076;SDS011;7114;51.100;13.998;2023-05-06T13:05:12;15.32;;;9.45;;
14076;SDS011;7114;51.100;13.998;2023-05-06T13:07:39;15.23;;;9.93;;
14076;SDS011;7114;51.100;13.998;2023-05-06T13:10:05;14.30;;;8.80;;
14076;SDS011;7114;51.100;13.998;2023-05-06T13:12:32;13.52;;;9.15;;
14076;SDS011;7114;51.100;13.998;2023-05-06T13:14:58;12.68;;;8.88;;
14076;SDS011;7114;51.100;13.998;2023-05-06T13:17:25;14.85;;;9.07;;
14076;SDS011;7114;51.100;13.998;2023-05-06T13:19:51;15.77;;;8.48;;
14076;SDS011;7114;51.100;13.998;2023-05-06T13:22:18;15.50;;;9.20;;
14076;SDS011;7114;51.100;13.998;2023-05-06T13:24:45;14.32;;;9.20;;
14076;SDS011;7114;51.100;13.998;2023-05-06T13:27:11;14.98;;;9.45;;
14076;SDS011;7114;51.100;13.998;2023-05-06T13:29:37;16.00;;;9.50;;
14076;SDS011;7114;51.100;13.998;2023-05-06T13:32:03;15.50;;;8.75;;
14076;SDS011;7114;51.100;13.998;2023-05-06T13:34:30;14.90;;;9.90;;
14076;SDS011;7114;51.100;13.998;2023-05-06T13:36:56;16.50;;;10.25;;
14076;SDS011;7114;51.100;13.998;2023-05-06T13:39:24;15.75;;;10.05;;
14076;SDS011;7114;51.100;13.998;2023-05-06T13:41:50;14.75;;;10.05;;
14076;SDS011;7114;51.100;13.998;2023-05-06T13:44:17;14.48;;;9.00;;
14076;SDS011;7114;51.100;13.998;2023-05-06T13:46:43;14.87;;;7.50;;
14076;SDS011;7114;51.100;13.998;2023-05-06T13:49:09;12.63;;;7.68;;
14076;SDS011;7114;51.100;13.998;2023-05-06T13:51:35;14.73;;;9.35;;
14076;SDS011;7114;51.100;13.998;2023-05-06T13:54:02;13.88;;;9.40;;
14076;SDS011;7114;51.100;13.998;2023-05-06T13:56:29;15.57;;;8.95;;
14076;SDS011;7114;51.100;13.998;2023-05-06T13:58:55;13.13;;;8.40;;
14076;SDS011;7114;51.100;13.998;2023-05-06T14:01:22;15.05;;;10.38;;
14076;SDS011;7114;51.100;13.998;2023-05-06T14:03:48;17.05;;;10.35;;
14076;SDS011;7114;51.100;13.998;2023-05-06T14:06:15;14.88;;;10.15;;
14076;SDS011;7114;51.100;13.998;2023-05-06T14:08:41;15.93;;;9.65;;
14076;SDS011;7114;51.100;13.998;2023-05-06T14:11:07;15.23;;;9.67;;
14076;SDS011;7114;51.100;13.998;2023-05-06T14:13:37;17.13;;;10.07;;
14076;SDS011;7114;51.100;13.998;2023-05-06T14:16:04;14.55;;;8.82;;
14076;SDS011;7114;51.100;13.998;2023-05-06T14:18:31;13.85;;;8.68;;
14076;SDS011;7114;51.100;13.998;2023-05-06T14:20:57;15.13;;;9.50;;
14076;SDS011;7114;51.100;13.998;2023-05-06T14:23:23;15.03;;;9.13;;
14076;SDS011;7114;51.100;13.998;2023-05-06T14:25:50;15.70;;;9.45;;
14076;SDS011;7114;51.100;13.998;2023-05-06T14:28:16;16.48;;;10.40;;